Time;durP1;ratioP1;P1;durP2;ratioP2;P2;SDS_P1;SDS_P2;PMS_P1;PMS_P2;Temp;Humidity;BMP_temperature;BMP_pressure;BME280_temperature;BME280_humidity;BME280_pressure;Samples;Min_cycle;Max_cycle;Signal;HPM_P1;HPM_P2
2024/03/30 00:00:45;;;;;;;17.40;11.40;;;;;;;;;;5128919;22;21101;-66
2024/03/30 00:03:30;;;;;;;20.30;10.80;;;;;;;;;;5072438;28;20482;-65
2024/03/30 00:06:16;;;;;;;13.63;9.52;;;;;;;;;;5076073;28;20032;-66
2024/03/30 00:09:03;;;;;;;15.18;10.55;;;;;;;;;;5076852;28;20121;-66
2024/03/30 00:11:48;;;;;;;15.30;10.25;;;;;;;;;;5077792;28;20028;-66
2024/03/30 00:14:34;;;;;;;16.63;10.48;;;;;;;;;;5057799;28;20060;-66
2024/03/30 00:17:20;;;;;;;16.05;9.30;;;;;;;;;;5057940;28;20409;-66
2024/03/30 00:20:05;;;;;;;15.05;11.07;;;;;;;;;;5064649;28;20111;-66
2024/03/30 00:22:51;;;;;;;14.52;11.00;;;;;;;;;;5071722;28;20120;-66
2024/03/30 00:25:37;;;;;;;17.42;12.10;;;;;;;;;;5058267;28;20020;-66
2024/03/30 00:28:23;;;;;;;13.15;9.95;;;;;;;;;;5070832;28;20158;-66
2024/03/30 00:31:09;;;;;;;14.52;10.45;;;;;;;;;;5057068;28;20057;-66
2024/03/30 00:33:55;;;;;;;16.40;10.70;;;;;;;;;;5052710;28;20512;-66
2024/03/30 00:36:40;;;;;;;18.88;11.00;;;;;;;;;;5052927;28;20036;-65
2024/03/30 00:39:26;;;;;;;20.80;12.15;;;;;;;;;;5053633;28;20498;-66
2024/03/30 00:42:12;;;;;;;18.40;11.70;;;;;;;;;;5071363;28;20140;-66
2024/03/30 00:44:58;;;;;;;15.65;10.73;;;;;;;;;;5070846;28;20064;-66
2024/03/30 00:47:43;;;;;;;18.92;11.15;;;;;;;;;;5053272;28;20025;-66
2024/03/30 00:50:29;;;;;;;16.83;10.73;;;;;;;;;;5051967;28;20516;-66
2024/03/30 00:53:14;;;;;;;18.70;9.05;;;;;;;;;;5066749;28;20378;-66
2024/03/30 00:56:00;;;;;;;16.40;11.27;;;;;;;;;;5075947;28;20016;-66
2024/03/30 00:58:46;;;;;;;18.45;10.88;;;;;;;;;;5054708;28;20056;-66
2024/03/30 01:01:31;;;;;;;22.13;12.80;;;;;;;;;;5072330;28;20037;-66
2024/03/30 01:04:17;;;;;;;20.05;11.18;;;;;;;;;;5076044;28;20104;-66
2024/03/30 01:07:03;;;;;;;17.02;11.73;;;;;;;;;;5076098;28;20485;-66
2024/03/30 01:09:48;;;;;;;18.15;11.30;;;;;;;;;;5056223;28;20024;-66
2024/03/30 01:12:34;;;;;;;17.05;10.57;;;;;;;;;;5055533;28;20103;-66
2024/03/30 01:15:20;;;;;;;17.98;11.05;;;;;;;;;;5056158;28;20090;-65
2024/03/30 01:18:07;;;;;;;18.80;11.30;;;;;;;;;;5056766;28;20052;-65
2024/03/30 01:20:52;;;;;;;16.23;11.48;;;;;;;;;;5065579;28;20064;-66
2024/03/30 01:23:39;;;;;;;20.42;12.70;;;;;;;;;;5065684;28;20070;-66
2024/03/30 01:26:25;;;;;;;20.08;11.98;;;;;;;;;;5074452;28;20035;-66
2024/03/30 01:29:12;;;;;;;24.75;12.55;;;;;;;;;;5067054;28;20036;-66
2024/03/30 01:31:58;;;;;;;23.88;13.38;;;;;;;;;;5073398;28;20025;-66
2024/03/30 01:34:44;;;;;;;19.40;12.75;;;;;;;;;;5075273;28;20029;-66
2024/03/30 01:37:29;;;;;;;22.92;13.07;;;;;;;;;;5074127;28;20033;-66
2024/03/30 01:40:15;;;;;;;25.08;13.73;;;;;;;;;;5073812;28;20020;-66
2024/03/30 01:43:03;;;;;;;20.08;11.85;;;;;;;;;;5074932;28;20392;-66
2024/03/30 01:45:49;;;;;;;20.58;13.35;;;;;;;;;;5059080;28;20040;-66
2024/03/30 01:48:35;;;;;;;20.13;12.95;;;;;;;;;;5071213;28;20021;-66
2024/03/30 01:51:21;;;;;;;20.17;11.20;;;;;;;;;;5039708;28;20455;-66
2024/03/30 01:54:08;;;;;;;19.00;11.80;;;;;;;;;;5054681;28;20120;-66
2024/03/30 01:56:54;;;;;;;23.30;12.77;;;;;;;;;;5054573;28;20445;-66
2024/03/30 01:59:41;;;;;;;20.67;13.02;;;;;;;;;;5057096;28;20029;-66
2024/03/30 02:02:27;;;;;;;23.27;14.40;;;;;;;;;;5040431;28;20064;-66
2024/03/30 02:05:13;;;;;;;23.10;13.82;;;;;;;;;;5058609;28;20020;-66
2024/03/30 02:08:02;;;;;;;26.23;14.70;;;;;;;;;;5069712;28;20505;-66
2024/03/30 02:10:48;;;;;;;23.88;14.38;;;;;;;;;;5048387;28;20127;-66
2024/03/30 02:13:34;;;;;;;25.73;14.40;;;;;;;;;;5053787;28;20032;-65
2024/03/30 02:16:24;;;;;;;25.45;14.38;;;;;;;;;;5073381;28;20170;-66
2024/03/30 02:19:09;;;;;;;25.92;14.55;;;;;;;;;;5054195;28;20024;-66
2024/03/30 02:21:55;;;;;;;26.92;14.40;;;;;;;;;;5055257;28;20032;-66
2024/03/30 02:24:41;;;;;;;25.42;14.30;;;;;;;;;;5053536;28;20134;-67
2024/03/30 02:27:26;;;;;;;22.40;12.82;;;;;;;;;;5054051;28;20025;-66
2024/03/30 02:30:21;;;;;;;17.35;12.80;;;;;;;;;;5062418;28;20528;-66
2024/03/30 02:33:07;;;;;;;23.30;13.85;;;;;;;;;;5059579;28;20035;-67
2024/03/30 02:35:53;;;;;;;24.05;13.73;;;;;;;;;;5060515;28;20489;-66
2024/03/30 02:38:38;;;;;;;26.77;16.00;;;;;;;;;;5073720;28;20055;-66
2024/03/30 02:41:24;;;;;;;29.63;14.52;;;;;;;;;;5072208;28;20028;-66
2024/03/30 02:44:10;;;;;;;26.60;14.93;;;;;;;;;;5073962;28;20024;-66
2024/03/30 02:46:55;;;;;;;25.65;14.43;;;;;;;;;;5074280;28;20028;-66
2024/03/30 02:49:41;;;;;;;24.65;14.68;;;;;;;;;;5073404;28;20033;-66
2024/03/30 02:52:27;;;;;;;24.17;14.00;;;;;;;;;;5074563;28;20141;-66
2024/03/30 02:55:12;;;;;;;27.30;16.52;;;;;;;;;;5073458;28;20032;-66
2024/03/30 02:57:58;;;;;;;23.45;13.07;;;;;;;;;;5064941;28;20067;-67
2024/03/30 03:00:43;;;;;;;21.27;11.82;;;;;;;;;;5071279;28;20382;-66
2024/03/30 03:03:29;;;;;;;20.55;12.77;;;;;;;;;;5073482;28;20028;-66
2024/03/30 03:06:15;;;;;;;22.63;13.68;;;;;;;;;;5072438;28;20048;-66
2024/03/30 03:09:00;;;;;;;21.35;13.38;;;;;;;;;;5071573;28;20020;-66
2024/03/30 03:11:46;;;;;;;26.52;14.85;;;;;;;;;;5071641;28;20075;-66
2024/03/30 03:14:32;;;;;;;23.65;13.73;;;;;;;;;;5070741;28;20020;-66
2024/03/30 03:17:17;;;;;;;23.20;14.68;;;;;;;;;;5073789;28;20025;-66
2024/03/30 03:20:05;;;;;;;21.85;13.38;;;;;;;;;;5069890;28;20020;-65
2024/03/30 03:22:51;;;;;;;25.20;14.35;;;;;;;;;;5043929;28;20525;-65
2024/03/30 03:25:36;;;;;;;23.90;14.80;;;;;;;;;;5079882;28;20084;-66
2024/03/30 03:28:22;;;;;;;19.27;13.40;;;;;;;;;;5069383;28;20046;-66
2024/03/30 03:31:07;;;;;;;20.88;13.38;;;;;;;;;;5059050;28;20024;-66
2024/03/30 03:33:53;;;;;;;22.00;14.38;;;;;;;;;;5071680;28;20436;-66
2024/03/30 03:36:39;;;;;;;23.02;14.82;;;;;;;;;;5071935;28;20074;-66
2024/03/30 03:39:24;;;;;;;24.38;14.32;;;;;;;;;;5075808;28;20024;-66
2024/03/30 03:42:10;;;;;;;25.48;15.40;;;;;;;;;;5055119;28;20126;-66
2024/03/30 03:44:56;;;;;;;25.08;15.75;;;;;;;;;;5055405;28;20025;-66
2024/03/30 03:47:41;;;;;;;23.60;14.80;;;;;;;;;;5038215;28;20025;-66
2024/03/30 03:50:27;;;;;;;25.45;15.32;;;;;;;;;;5060719;28;20024;-66
2024/03/30 03:53:13;;;;;;;25.30;14.70;;;;;;;;;;5052545;28;20036;-66
2024/03/30 03:55:59;;;;;;;29.48;16.40;;;;;;;;;;5039506;28;20056;-66
2024/03/30 03:58:45;;;;;;;23.45;14.93;;;;;;;;;;5053141;28;20020;-66
2024/03/30 04:01:31;;;;;;;25.50;14.38;;;;;;;;;;5074874;28;20032;-66
2024/03/30 04:04:17;;;;;;;24.10;14.15;;;;;;;;;;5072335;28;20162;-66
2024/03/30 04:07:02;;;;;;;25.10;13.57;;;;;;;;;;5072562;28;20020;-66
2024/03/30 04:09:51;;;;;;;22.65;13.40;;;;;;;;;;5064024;28;20028;-66
2024/03/30 04:12:38;;;;;;;21.90;13.35;;;;;;;;;;5072031;28;20043;-66
2024/03/30 04:15:23;;;;;;;25.63;14.82;;;;;;;;;;5053319;28;20032;-66
2024/03/30 04:18:09;;;;;;;21.35;15.02;;;;;;;;;;5052522;28;20039;-66
2024/03/30 04:20:59;;;;;;;27.13;14.93;;;;;;;;;;5059105;28;20028;-66
2024/03/30 04:23:44;;;;;;;24.02;13.95;;;;;;;;;;5063445;28;20021;-66
2024/03/30 04:26:30;;;;;;;21.38;13.52;;;;;;;;;;5084329;28;20035;-66
2024/03/30 04:29:16;;;;;;;21.58;13.70;;;;;;;;;;5074641;28;20020;-66
2024/03/30 04:32:01;;;;;;;24.33;14.30;;;;;;;;;;5075437;28;20444;-66
2024/03/30 04:34:47;;;;;;;26.10;15.02;;;;;;;;;;5075174;28;20036;-66
2024/03/30 04:37:32;;;;;;;24.50;14.25;;;;;;;;;;5075533;28;20016;-66
2024/03/30 04:40:18;;;;;;;25.52;14.20;;;;;;;;;;5057156;28;20517;-66
2024/03/30 04:43:04;;;;;;;23.08;15.27;;;;;;;;;;5075434;28;20056;-66
2024/03/30 04:45:49;;;;;;;23.38;14.70;;;;;;;;;;5060411;28;20025;-66
2024/03/30 04:48:35;;;;;;;23.90;15.27;;;;;;;;;;5071058;28;20024;-66
2024/03/30 04:51:21;;;;;;;25.25;13.93;;;;;;;;;;5074425;28;20027;-66
2024/03/30 04:54:06;;;;;;;32.35;16.75;;;;;;;;;;5074981;28;20414;-66
2024/03/30 04:56:52;;;;;;;26.95;15.50;;;;;;;;;;5075890;28;20031;-66
2024/03/30 04:59:37;;;;;;;27.17;16.55;;;;;;;;;;5074828;28;20063;-66
2024/03/30 05:02:23;;;;;;;22.30;15.02;;;;;;;;;;5057490;28;20029;-66
2024/03/30 05:05:09;;;;;;;27.77;15.25;;;;;;;;;;5058839;28;20016;-66
2024/03/30 05:07:54;;;;;;;22.83;15.48;;;;;;;;;;5074181;28;20052;-66
2024/03/30 05:10:41;;;;;;;23.88;14.20;;;;;;;;;;5069976;28;20024;-66
2024/03/30 05:13:27;;;;;;;24.85;15.68;;;;;;;;;;5041996;28;20032;-66
2024/03/30 05:16:13;;;;;;;23.70;15.68;;;;;;;;;;5060397;28;20024;-66
2024/03/30 05:19:00;;;;;;;24.58;14.82;;;;;;;;;;5057900;28;20082;-66
2024/03/30 05:21:46;;;;;;;25.60;15.57;;;;;;;;;;5055659;28;20115;-66
2024/03/30 05:24:31;;;;;;;23.98;13.68;;;;;;;;;;5061922;28;20028;-66
2024/03/30 05:27:17;;;;;;;24.05;16.17;;;;;;;;;;5058849;28;20028;-66
2024/03/30 05:30:04;;;;;;;23.38;12.95;;;;;;;;;;5072565;28;20419;-66
2024/03/30 05:32:50;;;;;;;24.98;16.38;;;;;;;;;;5054668;28;20025;-66
2024/03/30 05:35:39;;;;;;;26.17;14.95;;;;;;;;;;5055501;28;20494;-66
2024/03/30 05:38:24;;;;;;;25.73;15.00;;;;;;;;;;5054120;28;20029;-66
2024/03/30 05:41:10;;;;;;;22.95;13.32;;;;;;;;;;5071877;28;20397;-66
2024/03/30 05:43:55;;;;;;;26.30;14.52;;;;;;;;;;5074716;28;20027;-66
2024/03/30 05:46:41;;;;;;;20.58;13.70;;;;;;;;;;5072751;28;20029;-66
2024/03/30 05:49:27;;;;;;;23.83;15.80;;;;;;;;;;5073896;28;20055;-66
2024/03/30 05:52:12;;;;;;;25.10;14.52;;;;;;;;;;5057921;28;20075;-66
2024/03/30 05:54:58;;;;;;;24.65;15.23;;;;;;;;;;5054259;28;20037;-66
2024/03/30 05:57:44;;;;;;;24.40;14.93;;;;;;;;;;5053521;28;20079;-66
2024/03/30 06:00:30;;;;;;;22.23;13.80;;;;;;;;;;5056949;28;20027;-66
2024/03/30 06:03:16;;;;;;;24.23;15.02;;;;;;;;;;5095327;22;20044;-69
2024/03/30 06:06:01;;;;;;;21.75;14.68;;;;;;;;;;5070424;28;20071;-69
2024/03/30 06:08:47;;;;;;;22.15;13.88;;;;;;;;;;5053984;28;20600;-68
2024/03/30 06:11:32;;;;;;;26.58;13.75;;;;;;;;;;5065908;28;20074;-69
2024/03/30 06:14:18;;;;;;;20.92;14.23;;;;;;;;;;5073545;28;20027;-69
2024/03/30 06:17:04;;;;;;;23.40;15.27;;;;;;;;;;5073699;28;20024;-69
2024/03/30 06:19:49;;;;;;;23.83;14.07;;;;;;;;;;5073479;28;20405;-69
2024/03/30 06:22:36;;;;;;;20.38;13.63;;;;;;;;;;5055395;28;20024;-69
2024/03/30 06:25:21;;;;;;;23.50;13.45;;;;;;;;;;5052926;28;20087;-69
2024/03/30 06:28:07;;;;;;;23.02;13.02;;;;;;;;;;5054259;28;20025;-69
2024/03/30 06:30:52;;;;;;;24.60;14.70;;;;;;;;;;5048422;28;20082;-69
2024/03/30 06:33:38;;;;;;;20.95;13.07;;;;;;;;;;5053775;28;20114;-69
2024/03/30 06:36:24;;;;;;;21.00;12.77;;;;;;;;;;5052911;28;20083;-70
2024/03/30 06:39:09;;;;;;;21.83;13.60;;;;;;;;;;5052457;28;20029;-69
2024/03/30 06:44:59;;;;;;;17.83;12.77;;;;;;;;;;5072829;28;20473;-69
2024/03/30 06:47:45;;;;;;;25.52;13.07;;;;;;;;;;5033628;28;20044;-69
2024/03/30 06:50:30;;;;;;;17.67;12.30;;;;;;;;;;5031853;28;20017;-69
2024/03/30 06:53:16;;;;;;;16.88;11.38;;;;;;;;;;5034332;28;20044;-68
2024/03/30 06:56:02;;;;;;;17.08;10.75;;;;;;;;;;5034244;28;20083;-69
2024/03/30 06:58:47;;;;;;;18.00;10.50;;;;;;;;;;5048830;28;20438;-68
2024/03/30 07:01:33;;;;;;;17.55;11.35;;;;;;;;;;5050990;28;20055;-67
2024/03/30 07:04:19;;;;;;;16.60;11.15;;;;;;;;;;5052203;28;20025;-67
2024/03/30 07:07:04;;;;;;;16.88;11.50;;;;;;;;;;5051810;28;20021;-67
2024/03/30 07:09:50;;;;;;;20.13;10.05;;;;;;;;;;5061943;28;20488;-67
2024/03/30 07:12:37;;;;;;;17.80;11.73;;;;;;;;;;5070825;28;20079;-67
2024/03/30 07:15:23;;;;;;;15.73;11.15;;;;;;;;;;5071954;28;20021;-67
2024/03/30 07:18:08;;;;;;;16.67;11.45;;;;;;;;;;5067123;28;20110;-67
2024/03/30 07:20:54;;;;;;;15.82;10.70;;;;;;;;;;5042138;28;20117;-67
2024/03/30 07:23:39;;;;;;;18.42;10.98;;;;;;;;;;5043376;28;20477;-67
2024/03/30 07:26:25;;;;;;;15.82;9.93;;;;;;;;;;5065299;28;20505;-67
2024/03/30 07:29:11;;;;;;;14.82;10.75;;;;;;;;;;5052978;28;20052;-67
2024/03/30 07:31:58;;;;;;;14.65;10.65;;;;;;;;;;5041454;28;20025;-67
2024/03/30 07:34:49;;;;;;;15.70;10.70;;;;;;;;;;5033138;28;20022;-67
2024/03/30 07:37:37;;;;;;;16.95;10.25;;;;;;;;;;5047337;28;20029;-67
2024/03/30 07:40:22;;;;;;;13.88;10.02;;;;;;;;;;5052907;28;20021;-66
2024/03/30 07:43:08;;;;;;;17.20;10.27;;;;;;;;;;5071260;28;20658;-66
2024/03/30 07:45:54;;;;;;;15.18;9.80;;;;;;;;;;5052986;28;20028;-66
2024/03/30 07:48:39;;;;;;;14.60;10.05;;;;;;;;;;5054711;28;20079;-65
2024/03/30 07:51:25;;;;;;;13.90;9.88;;;;;;;;;;5056866;28;20024;-66
2024/03/30 07:54:11;;;;;;;15.05;10.07;;;;;;;;;;5051753;28;20110;-67
2024/03/30 07:56:58;;;;;;;14.07;10.43;;;;;;;;;;5051667;28;20029;-67
2024/03/30 07:59:44;;;;;;;12.60;9.23;;;;;;;;;;5049714;28;20039;-67
2024/03/30 08:02:29;;;;;;;13.95;8.70;;;;;;;;;;5045804;28;20025;-67
2024/03/30 08:05:16;;;;;;;13.57;9.35;;;;;;;;;;5055392;28;20036;-67
2024/03/30 08:08:01;;;;;;;13.65;8.52;;;;;;;;;;5038106;28;20056;-65
2024/03/30 08:10:47;;;;;;;12.18;8.55;;;;;;;;;;5045959;28;20028;-67
2024/03/30 08:13:32;;;;;;;13.65;9.75;;;;;;;;;;5035681;28;20029;-67
2024/03/30 08:16:18;;;;;;;12.02;8.50;;;;;;;;;;5036029;28;20052;-66
2024/03/30 08:19:06;;;;;;;12.77;7.18;;;;;;;;;;5063720;28;20401;-67
2024/03/30 08:21:51;;;;;;;11.90;7.60;;;;;;;;;;5054214;28;20025;-67
2024/03/30 08:24:37;;;;;;;12.07;7.50;;;;;;;;;;5070116;28;20486;-66
2024/03/30 08:27:22;;;;;;;11.25;8.10;;;;;;;;;;5071629;28;20032;-67
2024/03/30 08:30:09;;;;;;;12.70;8.77;;;;;;;;;;5042177;28;20033;-66
2024/03/30 08:32:55;;;;;;;10.90;7.60;;;;;;;;;;5041191;28;20491;-67
2024/03/30 08:35:50;;;;;;;11.45;8.07;;;;;;;;;;5048722;28;20025;-67
2024/03/30 08:38:36;;;;;;;11.45;7.75;;;;;;;;;;5050338;28;20398;-66
2024/03/30 08:41:22;;;;;;;13.93;8.55;;;;;;;;;;5051238;28;20450;-67
2024/03/30 08:44:07;;;;;;;12.23;8.10;;;;;;;;;;5063029;28;20115;-66
2024/03/30 08:46:53;;;;;;;11.98;8.07;;;;;;;;;;5035606;28;20053;-67
2024/03/30 08:49:39;;;;;;;13.55;8.68;;;;;;;;;;5050675;28;20574;-66
2024/03/30 08:52:25;;;;;;;10.57;7.13;;;;;;;;;;5035816;28;20033;-67
2024/03/30 08:55:11;;;;;;;10.68;7.70;;;;;;;;;;5044223;28;20029;-67
2024/03/30 08:57:56;;;;;;;9.88;7.70;;;;;;;;;;5038013;28;20787;-66
2024/03/30 09:00:42;;;;;;;11.43;7.22;;;;;;;;;;5060212;28;20052;-66
2024/03/30 09:03:27;;;;;;;8.77;6.82;;;;;;;;;;5051238;28;20031;-67
2024/03/30 09:06:13;;;;;;;10.88;7.43;;;;;;;;;;5051438;28;20020;-66
2024/03/30 09:08:59;;;;;;;10.82;7.82;;;;;;;;;;5064793;28;20090;-66
2024/03/30 09:11:44;;;;;;;12.20;7.63;;;;;;;;;;5033172;28;20037;-65
2024/03/30 09:14:30;;;;;;;13.60;7.75;;;;;;;;;;5035172;28;20080;-67
2024/03/30 09:17:16;;;;;;;11.82;7.72;;;;;;;;;;5036571;28;20040;-66
2024/03/30 09:20:02;;;;;;;13.43;8.27;;;;;;;;;;5046734;28;20035;-67
2024/03/30 09:22:47;;;;;;;11.27;8.05;;;;;;;;;;5055689;28;20064;-66
2024/03/30 09:25:34;;;;;;;11.52;7.50;;;;;;;;;;5056754;28;20021;-66
2024/03/30 09:28:19;;;;;;;13.73;7.97;;;;;;;;;;5053352;28;20025;-67
2024/03/30 09:31:05;;;;;;;10.20;7.40;;;;;;;;;;5040727;28;20083;-67
2024/03/30 09:33:50;;;;;;;13.00;7.53;;;;;;;;;;5052107;28;20080;-66
2024/03/30 09:36:36;;;;;;;11.60;6.93;;;;;;;;;;5041829;28;20160;-66
2024/03/30 09:39:22;;;;;;;8.80;6.47;;;;;;;;;;5051641;28;20055;-66
2024/03/30 09:42:08;;;;;;;10.13;6.03;;;;;;;;;;5046808;28;20445;-68
2024/03/30 09:44:54;;;;;;;7.28;6.03;;;;;;;;;;5047926;28;20049;-67
2024/03/30 09:47:41;;;;;;;10.60;6.25;;;;;;;;;;5037420;28;20449;-67
2024/03/30 09:50:27;;;;;;;7.50;5.80;;;;;;;;;;5053685;28;20032;-67
2024/03/30 09:53:13;;;;;;;9.20;5.13;;;;;;;;;;5052951;28;20482;-67
2024/03/30 09:56:00;;;;;;;6.75;5.13;;;;;;;;;;5065838;28;20028;-67
2024/03/30 09:58:46;;;;;;;6.53;5.15;;;;;;;;;;5061224;28;20060;-67
2024/03/30 10:01:32;;;;;;;6.03;4.43;;;;;;;;;;5048320;28;20020;-66
2024/03/30 10:04:17;;;;;;;6.95;4.32;;;;;;;;;;5053232;28;20029;-67
2024/03/30 10:07:09;;;;;;;6.22;4.32;;;;;;;;;;5052874;28;20067;-67
2024/03/30 10:09:59;;;;;;;6.25;4.22;;;;;;;;;;5053483;28;20028;-67
2024/03/30 10:13:04;;;;;;;6.00;4.38;;;;;;;;;;5051438;28;20093;-67
2024/03/30 10:15:52;;;;;;;5.38;4.30;;;;;;;;;;5040326;28;20104;-67
2024/03/30 10:18:37;;;;;;;5.05;3.58;;;;;;;;;;5050229;28;20376;-68
2024/03/30 10:21:23;;;;;;;9.90;5.00;;;;;;;;;;5051247;28;20072;-68
2024/03/30 10:24:09;;;;;;;5.22;3.22;;;;;;;;;;5041411;28;20454;-67
2024/03/30 10:26:55;;;;;;;6.15;4.65;;;;;;;;;;5033314;28;20021;-67
2024/03/30 10:29:43;;;;;;;5.75;4.72;;;;;;;;;;5046748;28;20036;-67
2024/03/30 10:32:30;;;;;;;6.65;4.70;;;;;;;;;;5051212;28;20434;-68
2024/03/30 10:35:19;;;;;;;5.78;4.53;;;;;;;;;;5050580;28;20029;-67
2024/03/30 10:38:05;;;;;;;6.88;4.40;;;;;;;;;;5046411;28;20071;-67
2024/03/30 10:40:51;;;;;;;5.78;4.63;;;;;;;;;;5032904;28;20437;-67
2024/03/30 10:43:36;;;;;;;7.28;4.88;;;;;;;;;;5049571;28;20086;-67
2024/03/30 10:46:26;;;;;;;5.88;3.90;;;;;;;;;;5046329;28;20116;-67
2024/03/30 10:49:12;;;;;;;4.68;4.25;;;;;;;;;;5048697;28;20025;-67
2024/03/30 10:51:59;;;;;;;6.93;4.75;;;;;;;;;;5052524;28;20078;-67
2024/03/30 10:54:45;;;;;;;6.15;4.22;;;;;;;;;;5050247;28;20044;-67
2024/03/30 10:57:30;;;;;;;5.28;3.97;;;;;;;;;;5046639;28;20025;-67
2024/03/30 11:00:16;;;;;;;5.18;4.30;;;;;;;;;;5039993;28;20021;-68
2024/03/30 11:03:04;;;;;;;6.10;3.92;;;;;;;;;;5044927;28;20017;-68
2024/03/30 11:05:52;;;;;;;6.18;4.13;;;;;;;;;;5037765;28;20506;-67
2024/03/30 11:08:38;;;;;;;4.63;4.20;;;;;;;;;;5051973;28;20114;-67
2024/03/30 11:11:24;;;;;;;5.15;3.58;;;;;;;;;;5045650;28;20078;-67
2024/03/30 11:14:10;;;;;;;5.93;3.75;;;;;;;;;;5046210;28;20578;-68
2024/03/30 11:16:56;;;;;;;4.53;3.95;;;;;;;;;;5032896;28;20033;-67
2024/03/30 11:19:47;;;;;;;5.28;3.45;;;;;;;;;;5057556;28;20389;-68
2024/03/30 11:22:54;;;;;;;4.82;3.83;;;;;;;;;;5067908;28;20081;-68
2024/03/30 11:25:42;;;;;;;5.20;4.22;;;;;;;;;;5047599;28;20501;-68
2024/03/30 11:28:30;;;;;;;6.15;3.70;;;;;;;;;;5047817;28;20037;-68
2024/03/30 11:31:22;;;;;;;4.60;3.65;;;;;;;;;;5050347;28;20032;-67
2024/03/30 11:34:34;;;;;;;5.70;4.13;;;;;;;;;;5063491;28;20051;-68
2024/03/30 11:37:28;;;;;;;4.88;3.92;;;;;;;;;;5076721;28;20100;-67
2024/03/30 11:40:20;;;;;;;6.32;3.90;;;;;;;;;;5032479;28;20021;-68
2024/03/30 11:43:35;;;;;;;7.20;4.15;;;;;;;;;;5045403;28;20029;-68
2024/03/30 11:46:21;;;;;;;5.95;4.28;;;;;;;;;;5040731;28;20035;-67
2024/03/30 11:49:08;;;;;;;5.97;3.90;;;;;;;;;;5043630;28;20028;-67
2024/03/30 11:51:53;;;;;;;5.20;3.80;;;;;;;;;;5044101;28;20029;-67
2024/03/30 11:54:44;;;;;;;8.35;5.05;;;;;;;;;;5059304;28;20043;-67
2024/03/30 11:57:30;;;;;;;4.88;3.72;;;;;;;;;;5066962;28;20111;-67
2024/03/30 12:00:19;;;;;;;4.72;4.20;;;;;;;;;;5048143;28;20040;-68
2024/03/30 12:03:05;;;;;;;6.45;4.78;;;;;;;;;;5090318;22;20101;-68
2024/03/30 12:05:52;;;;;;;6.35;4.70;;;;;;;;;;5053270;28;20051;-68
2024/03/30 12:08:39;;;;;;;7.68;4.75;;;;;;;;;;5050897;28;20108;-67
2024/03/30 12:11:24;;;;;;;6.72;4.72;;;;;;;;;;5068829;28;20063;-68
2024/03/30 12:14:15;;;;;;;6.13;4.35;;;;;;;;;;5051224;28;20064;-68
2024/03/30 12:17:01;;;;;;;7.53;4.85;;;;;;;;;;5032218;28;20440;-68
2024/03/30 12:19:50;;;;;;;6.20;4.70;;;;;;;;;;5031227;28;20022;-68
2024/03/30 12:22:35;;;;;;;6.57;5.05;;;;;;;;;;5033262;28;20029;-68
2024/03/30 12:25:23;;;;;;;7.18;4.75;;;;;;;;;;5031824;28;20087;-68
2024/03/30 12:28:09;;;;;;;6.80;4.70;;;;;;;;;;5005064;28;20026;-66
2024/03/30 12:30:55;;;;;;;7.07;5.10;;;;;;;;;;5032700;28;20028;-68
2024/03/30 12:33:41;;;;;;;6.07;4.40;;;;;;;;;;5031634;28;20022;-68
2024/03/30 12:36:27;;;;;;;6.30;4.85;;;;;;;;;;5032380;28;20079;-68
2024/03/30 12:39:15;;;;;;;5.85;4.72;;;;;;;;;;5032022;28;20490;-68
2024/03/30 12:42:00;;;;;;;7.15;5.03;;;;;;;;;;5032097;28;20033;-68
2024/03/30 12:44:52;;;;;;;6.90;4.75;;;;;;;;;;5031742;28;20521;-68
2024/03/30 12:47:38;;;;;;;5.82;4.40;;;;;;;;;;5021616;28;20034;-68
2024/03/30 12:50:25;;;;;;;5.50;4.35;;;;;;;;;;5034989;28;20029;-68
2024/03/30 12:53:11;;;;;;;7.80;4.97;;;;;;;;;;5035801;28;20467;-68
2024/03/30 12:55:56;;;;;;;5.60;4.35;;;;;;;;;;5021954;28;20037;-68
2024/03/30 12:58:42;;;;;;;7.78;5.15;;;;;;;;;;5035743;28;20087;-68
2024/03/30 13:01:27;;;;;;;5.20;4.47;;;;;;;;;;5035848;28;20075;-68
2024/03/30 13:04:13;;;;;;;8.95;5.20;;;;;;;;;;5034669;28;20502;-67
2024/03/30 13:06:59;;;;;;;7.82;5.25;;;;;;;;;;5035393;28;20100;-67
2024/03/30 13:09:45;;;;;;;7.57;5.55;;;;;;;;;;5036328;28;20029;-67
2024/03/30 13:12:30;;;;;;;8.45;4.65;;;;;;;;;;5035218;28;20017;-67
2024/03/30 13:15:18;;;;;;;9.38;5.63;;;;;;;;;;5035932;28;20033;-68
2024/03/30 13:18:07;;;;;;;9.20;4.95;;;;;;;;;;5022089;28;20026;-67
2024/03/30 13:20:53;;;;;;;12.15;4.70;;;;;;;;;;5035813;28;20061;-67
2024/03/30 13:23:39;;;;;;;6.05;4.93;;;;;;;;;;5034716;28;20021;-68
2024/03/30 13:26:25;;;;;;;6.18;4.65;;;;;;;;;;5035126;28;20025;-68
2024/03/30 13:29:10;;;;;;;5.38;4.80;;;;;;;;;;5035742;28;20064;-68
2024/03/30 13:31:56;;;;;;;7.93;5.70;;;;;;;;;;5033926;28;20022;-68
2024/03/30 13:34:41;;;;;;;7.20;5.03;;;;;;;;;;5034724;28;20018;-67
2024/03/30 13:37:27;;;;;;;8.82;4.95;;;;;;;;;;5034659;28;20025;-67
2024/03/30 13:40:13;;;;;;;7.95;5.75;;;;;;;;;;5021093;28;20026;-67
2024/03/30 13:42:59;;;;;;;6.90;5.47;;;;;;;;;;5033815;28;20028;-67
2024/03/30 13:45:45;;;;;;;7.32;4.95;;;;;;;;;;5034444;28;20028;-67
2024/03/30 13:48:33;;;;;;;8.15;5.85;;;;;;;;;;5034872;28;20049;-67
2024/03/30 13:51:19;;;;;;;9.52;5.10;;;;;;;;;;5034396;28;20136;-67
2024/03/30 13:54:04;;;;;;;7.38;4.88;;;;;;;;;;5034371;28;20063;-68
2024/03/30 13:56:56;;;;;;;7.68;5.05;;;;;;;;;;5034335;28;20514;-67
2024/03/30 13:59:42;;;;;;;6.95;5.75;;;;;;;;;;5033771;28;20025;-67
2024/03/30 14:02:28;;;;;;;10.20;5.10;;;;;;;;;;5035228;28;20033;-67
2024/03/30 14:05:13;;;;;;;8.15;5.22;;;;;;;;;;5034376;28;20021;-67
2024/03/30 14:07:59;;;;;;;10.15;5.45;;;;;;;;;;5034325;28;20032;-67
2024/03/30 14:10:44;;;;;;;6.40;4.78;;;;;;;;;;5034660;28;20438;-67
2024/03/30 14:13:30;;;;;;;8.60;5.32;;;;;;;;;;5033316;28;20022;-67
2024/03/30 14:16:16;;;;;;;8.27;5.50;;;;;;;;;;5029127;28;20399;-66
2024/03/30 14:19:01;;;;;;;9.43;5.25;;;;;;;;;;5031630;28;20028;-66
2024/03/30 14:21:47;;;;;;;6.40;4.25;;;;;;;;;;5032770;28;20049;-67
2024/03/30 14:24:33;;;;;;;7.30;5.20;;;;;;;;;;5032152;28;20096;-66
2024/03/30 14:27:18;;;;;;;12.70;5.57;;;;;;;;;;5033512;28;20026;-66
2024/03/30 14:30:04;;;;;;;8.32;4.88;;;;;;;;;;5031293;28;20417;-67
2024/03/30 14:32:50;;;;;;;11.55;7.35;;;;;;;;;;5031707;28;20127;-67
2024/03/30 14:35:36;;;;;;;14.60;8.27;;;;;;;;;;5031741;28;20018;-67
2024/03/30 14:38:21;;;;;;;22.15;11.95;;;;;;;;;;5032358;28;20060;-67
2024/03/30 14:41:07;;;;;;;21.00;12.32;;;;;;;;;;5031639;28;20031;-66
2024/03/30 14:43:53;;;;;;;19.33;10.60;;;;;;;;;;5033735;28;20112;-66
2024/03/30 14:46:39;;;;;;;21.02;9.77;;;;;;;;;;5031805;28;20021;-66
2024/03/30 14:49:24;;;;;;;14.57;9.82;;;;;;;;;;5032591;28;20021;-66
2024/03/30 14:52:10;;;;;;;16.08;10.38;;;;;;;;;;5031901;28;20076;-66
2024/03/30 14:54:56;;;;;;;15.73;8.73;;;;;;;;;;5031884;28;20030;-66
2024/03/30 14:57:41;;;;;;;12.00;7.45;;;;;;;;;;5032901;28;20083;-66
2024/03/30 15:00:27;;;;;;;12.10;6.30;;;;;;;;;;5030690;28;20035;-66
2024/03/30 15:03:13;;;;;;;9.40;6.28;;;;;;;;;;5031513;28;20025;-66
2024/03/30 15:05:58;;;;;;;10.35;4.97;;;;;;;;;;5032906;28;20430;-66
2024/03/30 15:08:49;;;;;;;10.30;5.25;;;;;;;;;;5030399;28;20128;-66
2024/03/30 15:11:36;;;;;;;9.30;5.85;;;;;;;;;;5028843;28;20026;-65
2024/03/30 15:14:24;;;;;;;10.10;5.55;;;;;;;;;;5035112;28;20036;-66
2024/03/30 15:17:10;;;;;;;13.27;6.15;;;;;;;;;;5019710;28;20486;-66
2024/03/30 15:19:57;;;;;;;8.32;4.95;;;;;;;;;;5032905;28;20104;-66
2024/03/30 15:22:42;;;;;;;9.70;5.65;;;;;;;;;;5032508;28;20499;-66
2024/03/30 15:25:28;;;;;;;11.75;5.55;;;;;;;;;;5032584;28;20442;-66
2024/03/30 15:28:14;;;;;;;7.70;4.72;;;;;;;;;;5032398;28;20168;-66
2024/03/30 15:34:04;;;;;;;10.65;6.07;;;;;;;;;;5031358;28;20037;-67
2024/03/30 15:36:50;;;;;;;8.55;5.55;;;;;;;;;;5032606;28;20029;-67
2024/03/30 15:39:37;;;;;;;10.23;5.97;;;;;;;;;;5019991;28;20147;-67
2024/03/30 15:42:29;;;;;;;8.77;4.70;;;;;;;;;;5031192;28;20028;-67
2024/03/30 15:45:15;;;;;;;8.38;4.88;;;;;;;;;;5032440;28;20025;-66
2024/03/30 15:48:02;;;;;;;9.25;5.15;;;;;;;;;;5032317;28;20032;-67
2024/03/30 15:51:04;;;;;;;9.10;5.47;;;;;;;;;;5031196;28;20029;-67
2024/03/30 15:53:50;;;;;;;7.45;5.05;;;;;;;;;;5032326;28;20148;-67
2024/03/30 15:56:36;;;;;;;12.30;5.20;;;;;;;;;;5032500;28;20073;-67
2024/03/30 15:59:22;;;;;;;8.20;4.93;;;;;;;;;;5031710;28;20032;-67
2024/03/30 16:02:07;;;;;;;9.38;5.75;;;;;;;;;;5031774;28;20513;-66
2024/03/30 16:04:53;;;;;;;9.20;4.55;;;;;;;;;;5023518;28;20411;-67
2024/03/30 16:07:40;;;;;;;11.82;6.07;;;;;;;;;;5012360;28;20084;-67
2024/03/30 16:10:25;;;;;;;12.75;5.82;;;;;;;;;;5012205;28;20032;-67
2024/03/30 16:13:11;;;;;;;11.07;5.57;;;;;;;;;;5038647;28;20053;-67
2024/03/30 16:16:00;;;;;;;9.90;5.90;;;;;;;;;;5043748;28;20058;-67
2024/03/30 16:18:45;;;;;;;11.45;6.20;;;;;;;;;;5032113;28;20030;-67
2024/03/30 16:21:31;;;;;;;14.68;5.72;;;;;;;;;;5033295;28;20017;-67
2024/03/30 16:24:16;;;;;;;10.90;7.32;;;;;;;;;;5035928;28;20022;-67
2024/03/30 16:27:03;;;;;;;11.70;6.85;;;;;;;;;;5036238;28;20036;-67